createdAt,value
2023-02-12T00:00:08.735Z,1.80
2023-02-12T00:02:36.705Z,1.77
2023-02-12T00:05:04.757Z,2.00
2023-02-12T00:07:32.669Z,1.67
2023-02-12T00:10:00.587Z,1.90
2023-02-12T00:12:28.648Z,2.30
2023-02-12T00:14:56.531Z,2.17
2023-02-12T00:17:25.884Z,2.47
2023-02-12T00:19:53.809Z,2.10
2023-02-12T00:22:21.707Z,2.33
2023-02-12T00:24:49.581Z,2.07
2023-02-12T00:27:17.511Z,1.90
2023-02-12T00:29:45.363Z,2.00
2023-02-12T00:32:14.303Z,1.80
2023-02-12T00:34:43.579Z,1.80
2023-02-12T00:37:11.465Z,2.10
2023-02-12T00:39:39.341Z,1.80
2023-02-12T00:42:07.335Z,1.87
2023-02-12T00:44:35.459Z,1.80
2023-02-12T00:47:03.397Z,1.70
2023-02-12T00:49:34.117Z,1.50
2023-02-12T00:52:03.604Z,1.70
2023-02-12T00:54:31.603Z,2.07
2023-02-12T00:56:59.530Z,1.90
2023-02-12T00:59:27.458Z,1.60
2023-02-12T01:01:55.764Z,1.60
2023-02-12T01:04:23.852Z,1.80
2023-02-12T01:06:51.744Z,1.87
2023-02-12T01:09:21.063Z,1.70
2023-02-12T01:11:48.967Z,1.63
2023-02-12T01:14:16.860Z,1.90
2023-02-12T01:16:44.751Z,2.33
2023-02-12T01:19:12.781Z,3.13
2023-02-12T01:21:40.697Z,2.10
2023-02-12T01:24:08.700Z,2.10
2023-02-12T01:26:38.016Z,1.80
2023-02-12T01:29:07.823Z,1.83
2023-02-12T01:31:37.745Z,1.80
2023-02-12T01:34:06.487Z,1.67
2023-02-12T01:36:34.367Z,1.77
2023-02-12T01:39:03.684Z,2.03
2023-02-12T01:41:32.707Z,2.10
2023-02-12T01:44:18.186Z,1.97
2023-02-12T01:46:46.524Z,2.00
2023-02-12T01:49:16.361Z,2.27
2023-02-12T01:51:44.244Z,1.97
2023-02-12T01:54:12.883Z,2.20
2023-02-12T01:56:40.823Z,2.20
2023-02-12T01:59:08.702Z,2.20
2023-02-12T02:01:37.992Z,2.13
2023-02-12T02:04:07.646Z,1.83
2023-02-12T02:06:36.554Z,1.97
2023-02-12T02:09:04.927Z,2.27
2023-02-12T02:11:49.338Z,2.23
2023-02-12T02:14:35.416Z,2.13
2023-02-12T02:17:24.807Z,2.40
2023-02-12T02:20:12.507Z,2.00
2023-02-12T02:22:41.714Z,2.20
2023-02-12T02:25:36.910Z,2.50
2023-02-12T02:28:13.651Z,1.87
2023-02-12T02:30:45.557Z,2.20
2023-02-12T02:33:27.012Z,1.93
2023-02-12T02:35:57.108Z,2.07
2023-02-12T02:38:28.677Z,1.97
2023-02-12T02:40:59.714Z,2.00
2023-02-12T02:43:29.703Z,2.20
2023-02-12T02:46:01.044Z,2.20
2023-02-12T02:48:30.699Z,2.37
2023-02-12T02:51:00.358Z,2.30
2023-02-12T02:53:29.508Z,2.73
2023-02-12T02:55:58.239Z,2.67
2023-02-12T02:58:27.963Z,2.63
2023-02-12T03:00:58.651Z,2.00
2023-02-12T03:03:28.552Z,2.80
2023-02-12T03:05:57.778Z,2.60
2023-02-12T03:08:27.263Z,2.63
2023-02-12T03:10:56.371Z,2.80
2023-02-12T03:13:26.050Z,2.73
2023-02-12T03:15:55.644Z,2.93
2023-02-12T03:18:26.624Z,3.10
2023-02-12T03:20:56.726Z,3.07
2023-02-12T03:23:25.831Z,3.47
2023-02-12T03:25:57.033Z,3.43
2023-02-12T03:28:28.191Z,3.27
2023-02-12T03:30:59.761Z,3.23
2023-02-12T03:33:31.581Z,3.50
2023-02-12T03:36:03.310Z,3.37
2023-02-12T03:38:37.354Z,3.80
2023-02-12T03:41:07.566Z,3.37
2023-02-12T03:43:39.244Z,3.40
2023-02-12T03:46:09.684Z,3.20
2023-02-12T03:48:42.914Z,4.17
2023-02-12T03:51:14.898Z,3.93
2023-02-12T03:53:44.247Z,3.90
2023-02-12T03:56:14.018Z,3.50
2023-02-12T03:58:42.101Z,3.83
2023-02-12T04:01:10.142Z,3.50
2023-02-12T04:03:39.590Z,3.60
2023-02-12T04:06:16.808Z,3.20
2023-02-12T04:08:44.674Z,4.00
2023-02-12T04:11:17.817Z,3.43
2023-02-12T04:13:48.675Z,3.10
2023-02-12T04:16:21.208Z,3.70
2023-02-12T04:18:50.711Z,3.30
2023-02-12T04:21:23.804Z,3.13
2023-02-12T04:23:56.191Z,2.80
2023-02-12T04:26:25.747Z,3.40
2023-02-12T04:29:09.428Z,3.50
2023-02-12T04:31:39.711Z,3.23
2023-02-12T04:34:11.347Z,3.00
2023-02-12T04:36:42.932Z,2.70
2023-02-12T04:39:12.184Z,2.97
2023-02-12T04:41:40.442Z,3.27
2023-02-12T04:44:18.274Z,3.40
2023-02-12T04:46:46.321Z,3.80
2023-02-12T04:49:17.320Z,3.47
2023-02-12T04:51:45.241Z,3.40
2023-02-12T04:54:13.123Z,2.93
2023-02-12T04:56:40.983Z,3.00
2023-02-12T04:59:09.442Z,3.07
2023-02-12T05:01:37.575Z,3.40
2023-02-12T05:04:05.863Z,3.10
2023-02-12T05:06:35.903Z,3.03
2023-02-12T05:09:04.069Z,2.83
2023-02-12T05:11:32.011Z,3.07
2023-02-12T05:13:59.971Z,2.93
2023-02-12T05:16:27.909Z,3.03
2023-02-12T05:18:55.825Z,3.03
2023-02-12T05:21:23.684Z,2.90
2023-02-12T05:23:52.955Z,2.80
2023-02-12T05:26:21.651Z,2.83
2023-02-12T05:28:49.551Z,3.17
2023-02-12T05:31:21.504Z,2.83
2023-02-12T05:33:49.882Z,3.03
2023-02-12T05:36:18.672Z,2.93
2023-02-12T05:38:46.595Z,2.87
2023-02-12T05:41:16.570Z,3.27
2023-02-12T05:43:45.250Z,3.20
2023-02-12T05:46:14.107Z,3.30
2023-02-12T05:48:42.054Z,3.43
2023-02-12T05:51:10.987Z,3.53
2023-02-12T05:53:38.955Z,3.30
2023-02-12T05:56:11.906Z,3.33
2023-02-12T05:58:41.706Z,3.20
2023-02-12T06:01:13.754Z,3.10
2023-02-12T06:03:41.740Z,2.90
2023-02-12T06:06:09.649Z,3.00
2023-02-12T06:08:37.529Z,3.07
2023-02-12T06:11:07.494Z,3.30
2023-02-12T06:13:35.382Z,3.63
2023-02-12T06:16:04.984Z,3.33
2023-02-12T06:18:32.923Z,3.20
2023-02-12T06:21:00.863Z,3.20
2023-02-12T06:23:28.805Z,3.30
2023-02-12T06:25:57.649Z,3.77
2023-02-12T06:28:25.848Z,3.83
2023-02-12T06:30:53.839Z,3.80
2023-02-12T06:33:23.202Z,3.17
2023-02-12T06:35:51.084Z,3.37
2023-02-12T06:38:18.958Z,3.50
2023-02-12T06:40:46.822Z,3.57
2023-02-12T06:43:14.710Z,4.10
2023-02-12T06:45:42.585Z,3.13
2023-02-12T06:48:10.506Z,4.07
2023-02-12T06:50:39.817Z,3.83
2023-02-12T06:53:07.711Z,3.53
2023-02-12T06:55:35.997Z,3.60
2023-02-12T06:58:03.886Z,3.80
2023-02-12T07:00:31.929Z,3.90
2023-02-12T07:02:59.811Z,3.90
2023-02-12T07:05:27.760Z,4.07
2023-02-12T07:07:57.025Z,4.00
2023-02-12T07:10:24.888Z,3.73
2023-02-12T07:12:52.777Z,3.47
2023-02-12T07:15:20.643Z,4.50
2023-02-12T07:17:48.530Z,4.20
2023-02-12T07:20:16.519Z,3.90
2023-02-12T07:22:44.767Z,3.87
2023-02-12T07:25:14.102Z,4.70
2023-02-12T07:27:42.031Z,4.23
2023-02-12T07:30:10.824Z,4.07
2023-02-12T07:32:38.719Z,4.13
2023-02-12T07:35:07.143Z,4.20
2023-02-12T07:37:35.284Z,5.27
2023-02-12T07:40:03.249Z,4.80
2023-02-12T07:42:32.803Z,4.83
2023-02-12T07:45:00.750Z,5.30
2023-02-12T07:47:28.669Z,5.20
2023-02-12T07:49:56.763Z,5.97
2023-02-12T07:52:24.630Z,5.40
2023-02-12T07:54:52.505Z,5.50
2023-02-12T07:57:20.366Z,6.07
2023-02-12T07:59:49.654Z,5.47
2023-02-12T08:02:17.645Z,14.77
2023-02-12T08:04:45.700Z,6.93
2023-02-12T08:07:13.688Z,6.17
2023-02-12T08:09:41.676Z,10.77
2023-02-12T08:12:09.616Z,12.90
2023-02-12T08:14:37.530Z,13.20
2023-02-12T08:17:08.381Z,8.57
2023-02-12T08:19:36.549Z,6.53
2023-02-12T08:22:06.477Z,8.50
2023-02-12T08:24:34.408Z,6.57
2023-02-12T08:27:02.477Z,7.10
2023-02-12T08:29:30.971Z,6.93
2023-02-12T08:31:59.764Z,6.17
2023-02-12T08:34:29.867Z,6.83
2023-02-12T08:36:57.917Z,6.80
2023-02-12T08:39:28.467Z,6.40
2023-02-12T08:41:56.507Z,7.10
2023-02-12T08:44:24.437Z,6.43
2023-02-12T08:46:53.178Z,6.30
2023-02-12T08:49:22.164Z,5.90
2023-02-12T08:51:52.423Z,5.83
2023-02-12T08:54:23.805Z,5.63
2023-02-12T08:56:51.795Z,5.90
2023-02-12T08:59:19.702Z,6.03
2023-02-12T09:01:47.581Z,5.50
2023-02-12T09:04:17.947Z,5.57
2023-02-12T09:06:46.070Z,5.37
2023-02-12T09:09:15.582Z,6.20
2023-02-12T09:11:43.535Z,6.07
2023-02-12T09:14:12.807Z,6.33
2023-02-12T09:16:40.819Z,7.17
2023-02-12T09:19:08.870Z,6.90
2023-02-12T09:21:36.747Z,6.70
2023-02-12T09:24:04.898Z,6.00
2023-02-12T09:26:34.257Z,6.07
2023-02-12T09:29:02.942Z,5.97
2023-02-12T09:31:31.475Z,6.30
2023-02-12T09:34:00.691Z,6.17
2023-02-12T09:36:28.578Z,6.00
2023-02-12T09:38:56.645Z,6.43
2023-02-12T09:42:12.925Z,6.37
2023-02-12T09:44:45.480Z,7.00
2023-02-12T09:47:14.893Z,6.87
2023-02-12T09:49:53.350Z,6.60
2023-02-12T09:52:23.460Z,6.20
2023-02-12T09:54:51.375Z,6.47
2023-02-12T09:57:20.917Z,5.97
2023-02-12T09:59:52.571Z,6.47
2023-02-12T10:02:20.906Z,5.90
2023-02-12T10:05:00.551Z,6.60
2023-02-12T10:07:36.940Z,5.70
2023-02-12T10:10:16.607Z,6.20
2023-02-12T10:12:50.931Z,6.23
2023-02-12T10:15:27.181Z,6.00
2023-02-12T10:17:57.507Z,5.67
2023-02-12T10:20:56.609Z,6.17
2023-02-12T10:23:47.228Z,6.17
2023-02-12T10:26:19.762Z,6.07
2023-02-12T10:28:47.685Z,6.40
2023-02-12T10:31:20.785Z,6.50
2023-02-12T10:33:50.039Z,5.97
2023-02-12T10:36:25.204Z,5.17
2023-02-12T10:38:54.569Z,5.20
2023-02-12T10:41:22.530Z,5.97
2023-02-12T10:43:50.450Z,5.80
2023-02-12T10:46:19.817Z,5.40
2023-02-12T10:48:49.304Z,5.60
2023-02-12T10:51:36.811Z,5.40
2023-02-12T10:54:32.364Z,5.67
2023-02-12T10:57:00.294Z,5.30
2023-02-12T10:59:28.177Z,5.73
2023-02-12T11:01:57.658Z,5.30
2023-02-12T11:04:27.444Z,5.53
2023-02-12T11:06:59.329Z,5.30
2023-02-12T11:09:30.611Z,5.13
2023-02-12T11:11:58.631Z,5.13
2023-02-12T11:14:26.654Z,5.40
2023-02-12T11:16:55.647Z,5.13
2023-02-12T11:19:25.725Z,5.00
2023-02-12T11:21:53.614Z,4.37
2023-02-12T11:24:31.445Z,4.93
2023-02-12T11:27:13.035Z,4.53
2023-02-12T11:29:41.000Z,5.27
2023-02-12T11:32:09.771Z,5.00
2023-02-12T11:34:39.264Z,5.70
2023-02-12T11:37:08.366Z,6.13
2023-02-12T11:39:37.231Z,5.20
2023-02-12T11:42:06.774Z,5.33
2023-02-12T11:44:36.336Z,5.30
2023-02-12T11:47:08.844Z,5.23
2023-02-12T11:49:44.237Z,5.10
2023-02-12T11:52:19.638Z,6.20
2023-02-12T11:54:47.832Z,6.40
2023-02-12T11:57:36.629Z,6.13
2023-02-12T12:00:06.439Z,6.60
2023-02-12T12:02:38.295Z,6.87
2023-02-12T12:05:10.662Z,6.60
2023-02-12T12:07:38.630Z,6.63
2023-02-12T12:10:08.735Z,6.97
2023-02-12T12:12:39.255Z,6.20
2023-02-12T12:15:25.849Z,6.27
2023-02-12T12:18:13.295Z,6.73
2023-02-12T12:20:44.868Z,6.57
2023-02-12T12:23:15.478Z,6.23
2023-02-12T12:25:45.061Z,5.77
2023-02-12T12:28:31.798Z,5.97
2023-02-12T12:31:03.689Z,5.50
2023-02-12T12:33:38.572Z,5.70
2023-02-12T12:36:51.856Z,5.30
2023-02-12T12:39:28.153Z,5.23
2023-02-12T12:42:23.632Z,4.90
2023-02-12T12:45:00.672Z,4.97
2023-02-12T12:47:30.667Z,4.77
2023-02-12T12:50:06.220Z,4.57
2023-02-12T12:52:51.984Z,4.10
2023-02-12T12:55:32.824Z,3.80
2023-02-12T12:58:02.548Z,4.33
2023-02-12T13:00:42.781Z,4.00
2023-02-12T13:03:41.112Z,3.87
2023-02-12T13:06:23.989Z,3.80
2023-02-12T13:09:11.436Z,3.73
2023-02-12T13:11:44.288Z,3.40
2023-02-12T13:14:29.927Z,3.60
2023-02-12T13:17:01.452Z,3.70
2023-02-12T13:19:35.661Z,3.47
2023-02-12T13:22:05.216Z,4.40
2023-02-12T13:24:35.597Z,4.20
2023-02-12T13:27:05.724Z,4.70
2023-02-12T13:29:35.606Z,6.40
2023-02-12T13:32:05.040Z,7.50
2023-02-12T13:34:33.349Z,8.43
2023-02-12T13:37:01.916Z,8.33
2023-02-12T13:39:33.339Z,8.67
2023-02-12T13:42:09.762Z,8.50
2023-02-12T13:44:39.738Z,9.20
2023-02-12T13:47:10.774Z,9.00
2023-02-12T13:49:42.758Z,8.37
2023-02-12T13:52:12.543Z,8.37
2023-02-12T13:54:52.601Z,8.30
2023-02-12T13:57:21.899Z,8.80
2023-02-12T13:59:50.489Z,8.13
2023-02-12T14:02:29.850Z,7.50
2023-02-12T14:04:59.887Z,7.30
2023-02-12T14:07:42.503Z,7.37
2023-02-12T14:10:22.116Z,7.13
2023-02-12T14:12:51.394Z,7.47
2023-02-12T14:15:29.712Z,7.37
2023-02-12T14:17:57.966Z,7.17
2023-02-12T14:20:28.159Z,7.40
2023-02-12T14:23:24.214Z,7.97
2023-02-12T14:26:10.062Z,7.83
2023-02-12T14:28:48.927Z,8.27
2023-02-12T14:31:31.896Z,7.47
2023-02-12T14:34:49.508Z,8.07
2023-02-12T14:37:38.272Z,8.37
2023-02-12T14:40:44.173Z,8.53
2023-02-12T14:43:32.648Z,8.27
2023-02-12T14:46:40.465Z,8.07
2023-02-12T14:49:19.507Z,7.87
2023-02-12T14:51:52.308Z,7.03
2023-02-12T14:54:31.338Z,7.10
2023-02-12T14:57:01.592Z,6.23
2023-02-12T14:59:29.498Z,5.53
2023-02-12T15:01:58.863Z,4.97
2023-02-12T15:04:27.561Z,4.50
2023-02-12T15:06:58.288Z,4.30
2023-02-12T15:09:29.747Z,3.63
2023-02-12T15:12:01.890Z,3.77
2023-02-12T15:14:31.936Z,4.27
2023-02-12T15:17:03.593Z,3.33
2023-02-12T15:19:38.815Z,3.80
2023-02-12T15:22:18.155Z,3.67
2023-02-12T15:24:46.942Z,3.20
2023-02-12T15:27:15.327Z,3.30
2023-02-12T15:29:44.092Z,3.50
2023-02-12T15:32:17.532Z,3.67
2023-02-12T15:34:45.584Z,3.57
2023-02-12T15:37:19.286Z,3.53
2023-02-12T15:39:48.044Z,3.30
2023-02-12T15:42:30.309Z,3.20
2023-02-12T15:45:19.654Z,3.00
2023-02-12T15:47:59.163Z,2.80
2023-02-12T15:50:27.134Z,2.93
2023-02-12T15:52:55.264Z,2.63
2023-02-12T15:55:25.204Z,2.90
2023-02-12T15:57:53.820Z,2.43
2023-02-12T16:00:30.149Z,2.63
2023-02-12T16:02:59.478Z,2.73
2023-02-12T16:05:27.570Z,2.57
2023-02-12T16:07:55.608Z,3.13
2023-02-12T16:10:23.684Z,3.37
2023-02-12T16:12:51.766Z,2.73
2023-02-12T16:15:27.516Z,2.80
2023-02-12T16:17:56.498Z,2.47
2023-02-12T16:20:27.206Z,3.10
2023-02-12T16:22:55.363Z,2.70
2023-02-12T16:25:24.611Z,3.33
2023-02-12T16:27:57.638Z,3.67
2023-02-12T16:30:27.798Z,3.50
2023-02-12T16:32:56.188Z,3.27
2023-02-12T16:35:30.311Z,3.00
2023-02-12T16:38:03.030Z,3.67
2023-02-12T16:40:35.864Z,3.33
2023-02-12T16:43:26.537Z,3.73
2023-02-12T16:46:04.188Z,3.77
2023-02-12T16:48:33.575Z,3.63
2023-02-12T16:51:06.106Z,4.07
2023-02-12T16:53:43.094Z,4.80
2023-02-12T16:56:15.748Z,4.73
2023-02-12T16:58:46.485Z,4.27
2023-02-12T17:01:18.076Z,5.40
2023-02-12T17:03:47.718Z,5.10
2023-02-12T17:06:17.762Z,4.73
2023-02-12T17:08:45.644Z,5.23
2023-02-12T17:11:14.266Z,4.83
2023-02-12T17:13:42.127Z,5.60
2023-02-12T17:16:12.699Z,4.90
2023-02-12T17:18:42.507Z,5.07
2023-02-12T17:21:15.977Z,5.40
2023-02-12T17:23:45.290Z,5.17
2023-02-12T17:26:13.246Z,4.93
2023-02-12T17:28:41.475Z,5.00
2023-02-12T17:31:09.546Z,4.63
2023-02-12T17:33:37.471Z,4.97
2023-02-12T17:36:06.210Z,4.40
2023-02-12T17:38:36.153Z,4.67
2023-02-12T17:41:09.440Z,4.50
2023-02-12T17:43:37.310Z,4.73
2023-02-12T17:46:09.933Z,4.50
2023-02-12T17:48:37.968Z,4.80
2023-02-12T17:51:06.304Z,6.17
2023-02-12T17:53:34.183Z,4.80
2023-02-12T17:56:02.191Z,4.50
2023-02-12T17:58:32.006Z,4.90
2023-02-12T18:01:05.515Z,4.97
2023-02-12T18:03:33.465Z,5.47
2023-02-12T18:06:01.386Z,6.30
2023-02-12T18:08:29.404Z,5.17
2023-02-12T18:10:57.693Z,4.77
2023-02-12T18:13:25.765Z,4.93
2023-02-12T18:15:55.323Z,6.27
2023-02-12T18:18:23.202Z,6.23
2023-02-12T18:20:51.126Z,5.87
2023-02-12T18:23:19.083Z,5.80
2023-02-12T18:25:46.941Z,6.53
2023-02-12T18:28:14.876Z,5.17
2023-02-12T18:30:43.855Z,6.40
2023-02-12T18:33:13.341Z,7.03
2023-02-12T18:35:41.823Z,6.93
2023-02-12T18:38:09.767Z,7.23
2023-02-12T18:40:40.799Z,7.73
2023-02-12T18:43:08.706Z,7.33
2023-02-12T18:45:36.601Z,7.13
2023-02-12T18:48:08.497Z,6.37
2023-02-12T18:50:37.798Z,6.40
2023-02-12T18:53:05.884Z,7.00
2023-02-12T18:55:33.769Z,6.43
2023-02-12T18:58:01.704Z,7.33
2023-02-12T19:00:29.740Z,6.90
2023-02-12T19:02:57.719Z,5.83
2023-02-12T19:05:26.338Z,6.90
2023-02-12T19:07:55.718Z,7.40
2023-02-12T19:10:23.660Z,6.17
2023-02-12T19:12:51.626Z,6.40
2023-02-12T19:15:19.498Z,6.53
2023-02-12T19:17:47.402Z,6.83
2023-02-12T19:20:16.875Z,6.60
2023-02-12T19:22:46.412Z,6.13
2023-02-12T19:25:15.877Z,7.00
2023-02-12T19:27:43.738Z,5.80
2023-02-12T19:30:12.514Z,6.43
2023-02-12T19:32:40.428Z,6.37
2023-02-12T19:35:08.454Z,7.33
2023-02-12T19:37:36.327Z,7.03
2023-02-12T19:40:04.230Z,6.60
2023-02-12T19:42:33.850Z,8.10
2023-02-12T19:45:01.849Z,9.43
2023-02-12T19:47:29.765Z,7.23
2023-02-12T19:49:57.663Z,7.83
2023-02-12T19:52:25.555Z,6.13
2023-02-12T19:54:53.637Z,6.60
2023-02-12T19:57:21.530Z,6.90
2023-02-12T19:59:50.775Z,7.30
2023-02-12T20:02:18.742Z,5.57
2023-02-12T20:04:47.329Z,6.00
2023-02-12T20:07:15.281Z,6.67
2023-02-12T20:09:43.166Z,6.37
2023-02-12T20:12:11.376Z,6.93
2023-02-12T20:14:39.283Z,6.67
2023-02-12T20:17:08.581Z,7.00
2023-02-12T20:19:36.465Z,5.40
2023-02-12T20:22:04.666Z,6.97
2023-02-12T20:24:33.914Z,6.17
2023-02-12T20:27:02.254Z,6.50
2023-02-12T20:29:30.133Z,6.53
2023-02-12T20:31:58.096Z,5.67
2023-02-12T20:34:27.434Z,6.70
2023-02-12T20:36:55.322Z,6.27
2023-02-12T20:39:23.377Z,6.87
2023-02-12T20:41:51.294Z,7.17
2023-02-12T20:44:21.315Z,6.63
2023-02-12T20:46:52.492Z,7.30
2023-02-12T20:49:23.925Z,7.00
2023-02-12T20:51:53.285Z,7.27
2023-02-12T20:54:21.216Z,8.93
2023-02-12T20:56:49.762Z,7.60
2023-02-12T20:59:18.495Z,7.93
2023-02-12T21:01:46.919Z,9.50
2023-02-12T21:04:16.817Z,8.70
2023-02-12T21:06:45.663Z,6.67
2023-02-12T21:09:15.084Z,9.80
2023-02-12T21:11:45.594Z,9.80
2023-02-12T21:14:23.589Z,10.37
2023-02-12T21:16:52.389Z,9.57
2023-02-12T21:19:20.348Z,11.60
2023-02-12T21:21:48.241Z,10.87
2023-02-12T21:24:19.720Z,10.67
2023-02-12T21:26:47.583Z,9.53
2023-02-12T21:29:15.533Z,10.67
2023-02-12T21:31:44.578Z,9.93
2023-02-12T21:34:14.101Z,10.70
2023-02-12T21:36:43.058Z,10.40
2023-02-12T21:39:12.870Z,11.33
2023-02-12T21:41:42.976Z,11.33
2023-02-12T21:44:12.419Z,9.90
2023-02-12T21:46:40.339Z,10.67
2023-02-12T21:49:08.216Z,10.33
2023-02-12T21:51:39.114Z,10.50
2023-02-12T21:54:08.147Z,9.60
2023-02-12T21:56:37.033Z,10.03
2023-02-12T21:59:06.314Z,10.50
2023-02-12T22:01:35.323Z,9.53
2023-02-12T22:04:03.203Z,9.10
2023-02-12T22:06:31.094Z,8.50
2023-02-12T22:09:02.540Z,8.70
2023-02-12T22:11:30.424Z,10.10
2023-02-12T22:13:58.305Z,8.43
2023-02-12T22:16:28.644Z,8.93
2023-02-12T22:18:57.383Z,9.27
2023-02-12T22:21:26.247Z,8.67
2023-02-12T22:23:54.568Z,7.83
2023-02-12T22:26:23.309Z,8.57
2023-02-12T22:28:51.907Z,8.93
2023-02-12T22:31:21.935Z,7.33
2023-02-12T22:33:51.712Z,8.70
2023-02-12T22:36:21.871Z,9.33
2023-02-12T22:38:49.813Z,9.03
2023-02-12T22:41:17.687Z,9.63
2023-02-12T22:43:45.649Z,9.10
2023-02-12T22:46:14.105Z,9.33
2023-02-12T22:48:42.040Z,9.97
2023-02-12T22:51:14.111Z,9.40
2023-02-12T22:53:42.020Z,9.53
2023-02-12T22:56:10.131Z,9.30
2023-02-12T22:58:38.685Z,9.53
2023-02-12T23:01:07.272Z,10.27
2023-02-12T23:03:37.378Z,9.87
2023-02-12T23:06:06.058Z,9.57
2023-02-12T23:08:35.425Z,10.00
2023-02-12T23:11:03.311Z,10.33
2023-02-12T23:13:31.319Z,9.77
2023-02-12T23:15:59.365Z,9.40
2023-02-12T23:18:27.342Z,10.57
2023-02-12T23:20:55.751Z,9.47
2023-02-12T23:23:23.830Z,10.13
2023-02-12T23:25:54.496Z,9.57
2023-02-12T23:28:22.545Z,10.30
2023-02-12T23:30:50.691Z,10.97
2023-02-12T23:33:19.166Z,11.60
2023-02-12T23:35:47.205Z,11.00
2023-02-12T23:38:15.123Z,11.40
2023-02-12T23:40:43.105Z,11.33
2023-02-12T23:43:12.406Z,10.37
2023-02-12T23:45:40.344Z,11.37
2023-02-12T23:48:08.254Z,11.43
2023-02-12T23:50:36.196Z,12.30
2023-02-12T23:53:04.103Z,13.63
2023-02-12T23:55:32.011Z,13.97
2023-02-12T23:57:59.859Z,13.63
